Time;durP1;ratioP1;P1;durP2;ratioP2;P2;SDS_P1;SDS_P2;PMS_P1;PMS_P2;Temp;Humidity;BMP_temperature;BMP_pressure;BME280_temperature;BME280_humidity;BME280_pressure;Samples;Min_cycle;Max_cycle;Signal;HPM_P1;HPM_P2
2022/02/20 00:00:00;;;;;;;2.30;0.80;;;8.40;4.20;;;;;;5049932;28;20481;-80
2022/02/20 00:02:29;;;;;;;1.53;1.03;;;8.40;4.70;;;;;;5050082;28;20549;-80
2022/02/20 00:04:58;;;;;;;1.03;0.70;;;8.50;6.00;;;;;;5049432;28;20478;-81
2022/02/20 00:07:27;;;;;;;1.67;0.63;;;8.40;6.70;;;;;;5049452;28;20812;-80
2022/02/20 00:09:55;;;;;;;0.73;0.70;;;8.40;8.50;;;;;;5048459;28;20446;-80
2022/02/20 00:12:24;;;;;;;3.20;1.10;;;8.70;10.70;;;;;;5050269;28;20505;-80
2022/02/20 00:14:52;;;;;;;1.43;0.70;;;8.70;10.20;;;;;;5047303;28;20652;-81
2022/02/20 00:17:21;;;;;;;1.90;0.73;;;8.60;11.30;;;;;;5043921;28;20548;-80
2022/02/20 00:19:50;;;;;;;1.13;0.80;;;8.30;11.20;;;;;;5050058;28;20443;-79
2022/02/20 00:22:19;;;;;;;1.90;0.87;;;7.80;12.70;;;;;;5042316;28;20465;-80
2022/02/20 00:24:48;;;;;;;3.63;0.90;;;7.90;17.10;;;;;;5044237;28;21013;-81
2022/02/20 00:27:16;;;;;;;0.80;0.80;;;7.80;20.10;;;;;;5049536;28;20888;-80
2022/02/20 00:29:44;;;;;;;0.63;0.63;;;7.80;24.80;;;;;;5051184;28;20455;-80
2022/02/20 00:32:12;;;;;;;2.60;0.90;;;7.90;26.90;;;;;;5041903;28;20475;-80
2022/02/20 00:34:41;;;;;;;4.43;0.83;;;8.10;30.80;;;;;;5052974;28;20446;-80
2022/02/20 00:37:09;;;;;;;3.63;0.80;;;8.10;32.50;;;;;;5046941;28;20480;-81
2022/02/20 00:39:39;;;;;;;6.70;0.90;;;8.00;33.50;;;;;;5049683;28;20549;-80
2022/02/20 00:42:08;;;;;;;3.03;0.87;;;8.10;36.10;;;;;;5046257;28;20485;-79
2022/02/20 00:44:39;;;;;;;1.03;0.77;;;8.40;40.30;;;;;;5048773;28;20868;-79
2022/02/20 00:47:07;;;;;;;0.70;0.60;;;8.20;41.10;;;;;;5043822;28;22437;-80
2022/02/20 00:49:37;;;;;;;0.60;0.60;;;8.50;43.70;;;;;;5046007;28;20452;-80
2022/02/20 00:52:05;;;;;;;2.83;0.70;;;8.40;42.70;;;;;;5040593;28;20474;-79
2022/02/20 00:54:34;;;;;;;3.70;0.70;;;8.20;43.00;;;;;;5045108;28;20442;-79
2022/02/20 00:57:04;;;;;;;5.20;0.60;;;8.10;45.80;;;;;;5047429;28;20916;-79
2022/02/20 00:59:32;;;;;;;3.67;0.90;;;8.20;49.40;;;;;;5045728;28;20529;-79
2022/02/20 01:02:00;;;;;;;0.93;0.70;;;8.10;50.00;;;;;;5041582;28;20484;-80
2022/02/20 01:04:28;;;;;;;0.60;0.60;;;7.90;53.70;;;;;;5046056;28;20452;-81
2022/02/20 01:06:57;;;;;;;0.83;0.70;;;7.90;58.80;;;;;;5042811;28;20478;-80
2022/02/20 01:09:25;;;;;;;0.80;0.70;;;7.80;62.70;;;;;;5044863;28;20455;-80
2022/02/20 01:11:53;;;;;;;1.47;0.70;;;7.90;68.40;;;;;;5046006;28;20580;-80
2022/02/20 01:14:23;;;;;;;2.63;0.70;;;7.90;68.60;;;;;;5042641;28;20892;-79
2022/02/20 01:16:51;;;;;;;1.80;0.60;;;7.40;77.40;;;;;;5040656;28;20546;-80
2022/02/20 01:19:19;;;;;;;3.20;0.70;;;7.30;92.80;;;;;;5042988;28;20547;-79
2022/02/20 01:21:47;;;;;;;2.83;0.80;;;7.70;92.90;;;;;;5043163;28;20535;-80
2022/02/20 01:24:16;;;;;;;1.30;0.57;;;7.70;90.80;;;;;;5043319;28;20546;-80
2022/02/20 01:26:44;;;;;;;2.90;0.70;;;7.30;92.50;;;;;;5048419;28;20440;-80
2022/02/20 01:29:12;;;;;;;3.70;0.70;;;7.30;96.10;;;;;;5043313;28;20540;-80
2022/02/20 01:31:42;;;;;;;1.60;0.93;;;7.60;96.30;;;;;;5043497;28;20481;-80
2022/02/20 01:34:10;;;;;;;2.30;0.73;;;7.50;96.30;;;;;;5043679;28;20527;-80
2022/02/20 01:36:38;;;;;;;1.50;0.90;;;7.80;96.70;;;;;;5045165;28;20452;-79
2022/02/20 01:39:06;;;;;;;1.80;0.60;;;7.60;96.40;;;;;;5044500;28;20475;-79
2022/02/20 01:41:35;;;;;;;2.30;0.70;;;7.80;96.30;;;;;;5038966;28;20487;-79
2022/02/20 01:44:03;;;;;;;2.17;0.80;;;7.40;96.30;;;;;;5041901;28;20786;-79
2022/02/20 01:46:32;;;;;;;1.67;0.80;;;7.20;99.90;;;;;;5041624;28;20459;-80
2022/02/20 01:49:02;;;;;;;4.17;0.60;;;7.10;99.90;;;;;;5041318;28;20952;-81
2022/02/20 01:51:30;;;;;;;2.00;0.60;;;7.30;99.90;;;;;;5045392;28;20479;-80
2022/02/20 01:53:58;;;;;;;2.77;0.60;;;7.40;99.90;;;;;;5057682;28;20468;-80
2022/02/20 01:56:26;;;;;;;2.17;0.60;;;7.20;99.90;;;;;;5041193;28;20460;-80
2022/02/20 01:58:55;;;;;;;2.80;1.00;;;7.20;99.90;;;;;;5045560;28;20459;-80
2022/02/20 02:01:23;;;;;;;0.70;0.70;;;7.50;99.90;;;;;;5044661;28;20501;-80
2022/02/20 02:03:51;;;;;;;1.90;1.73;;;7.50;99.90;;;;;;5046603;28;20442;-81
2022/02/20 02:06:21;;;;;;;2.40;0.80;;;7.70;99.90;;;;;;5044342;28;20458;-81
2022/02/20 02:08:49;;;;;;;2.13;0.90;;;7.80;99.90;;;;;;5049376;28;20465;-81
2022/02/20 02:11:18;;;;;;;3.03;0.63;;;7.70;99.90;;;;;;5063646;28;20467;-81
2022/02/20 02:13:46;;;;;;;1.20;0.80;;;7.60;99.90;;;;;;5046155;28;20465;-81
2022/02/20 02:16:15;;;;;;;2.17;0.60;;;7.60;99.90;;;;;;5046275;28;20477;-80
2022/02/20 02:18:43;;;;;;;3.70;0.67;;;7.70;99.90;;;;;;5058738;28;20471;-81
2022/02/20 02:21:11;;;;;;;0.67;0.60;;;7.70;99.90;;;;;;5057573;28;20489;-81
2022/02/20 02:23:41;;;;;;;0.90;0.50;;;7.70;99.90;;;;;;5046881;28;20451;-81
2022/02/20 02:26:09;;;;;;;1.23;0.70;;;7.70;99.90;;;;;;5048733;28;20460;-81
2022/02/20 02:28:37;;;;;;;4.60;0.90;;;7.90;99.90;;;;;;5047789;28;20452;-81
2022/02/20 02:31:06;;;;;;;1.57;0.70;;;8.00;99.90;;;;;;5041880;28;20456;-81
2022/02/20 02:33:35;;;;;;;0.93;0.87;;;8.00;99.90;;;;;;5048842;28;20449;-81
2022/02/20 02:36:06;;;;;;;3.70;0.60;;;7.80;99.90;;;;;;5046944;28;20516;-81
2022/02/20 02:38:35;;;;;;;1.13;0.70;;;7.70;99.90;;;;;;5058159;28;20448;-81
2022/02/20 02:41:07;;;;;;;1.03;0.60;;;7.80;99.90;;;;;;5044150;28;20458;-82
2022/02/20 02:43:36;;;;;;;0.60;0.60;;;7.60;99.90;;;;;;5053254;28;20516;-82
2022/02/20 02:46:06;;;;;;;11.37;0.87;;;7.60;99.90;;;;;;5059851;28;20453;-81
2022/02/20 02:48:34;;;;;;;3.70;1.00;;;7.50;99.90;;;;;;5046773;28;20508;-81
2022/02/20 02:51:04;;;;;;;1.80;0.70;;;7.60;99.90;;;;;;5045575;28;20453;-81
2022/02/20 02:53:32;;;;;;;2.50;0.60;;;7.40;99.90;;;;;;5046703;28;20515;-81
2022/02/20 02:56:00;;;;;;;0.73;0.60;;;7.60;99.90;;;;;;5045908;28;20538;-81
2022/02/20 02:58:30;;;;;;;1.17;0.50;;;7.50;99.90;;;;;;5046331;28;20454;-81
2022/02/20 03:00:58;;;;;;;2.10;0.60;;;7.50;99.90;;;;;;5044359;28;20483;-80
2022/02/20 03:03:26;;;;;;;0.80;0.70;;;7.60;99.90;;;;;;5050995;28;20589;-81
2022/02/20 03:05:57;;;;;;;1.43;0.80;;;7.60;99.90;;;;;;5049479;28;20459;-80
2022/02/20 03:08:26;;;;;;;1.30;0.70;;;7.80;99.90;;;;;;5048816;28;20455;-81
2022/02/20 03:10:54;;;;;;;0.90;0.53;;;7.70;99.90;;;;;;5043120;28;20463;-81
2022/02/20 03:13:23;;;;;;;0.93;0.80;;;7.70;99.90;;;;;;5048982;28;20980;-80
2022/02/20 03:15:52;;;;;;;1.90;0.60;;;7.90;99.90;;;;;;5045050;28;21031;-80
2022/02/20 03:18:20;;;;;;;1.03;0.50;;;7.70;99.90;;;;;;5044537;28;20459;-81
2022/02/20 03:20:49;;;;;;;0.57;0.57;;;7.80;99.90;;;;;;5047971;28;20458;-82
2022/02/20 03:23:17;;;;;;;1.53;0.50;;;7.80;99.90;;;;;;5047544;28;20490;-81
2022/02/20 03:25:45;;;;;;;0.73;0.50;;;7.60;99.90;;;;;;5047697;28;20473;-81
2022/02/20 03:28:14;;;;;;;0.90;0.60;;;7.60;99.90;;;;;;5044688;28;20463;-81
2022/02/20 03:30:42;;;;;;;1.37;0.67;;;7.70;99.90;;;;;;5046566;28;21019;-81
2022/02/20 03:33:12;;;;;;;0.90;0.60;;;7.60;99.90;;;;;;5043897;28;20495;-82
2022/02/20 03:35:41;;;;;;;0.73;0.60;;;7.70;99.90;;;;;;5046540;28;20461;-81
2022/02/20 03:38:09;;;;;;;1.23;0.70;;;7.70;99.90;;;;;;5041756;28;20476;-80
2022/02/20 03:40:38;;;;;;;1.50;0.50;;;7.80;99.90;;;;;;5043997;28;20449;-79
2022/02/20 03:43:06;;;;;;;2.17;0.50;;;7.90;99.90;;;;;;5042480;28;20507;-80
2022/02/20 03:45:34;;;;;;;1.00;0.60;;;8.10;99.90;;;;;;5038000;28;20461;-81
2022/02/20 03:48:03;;;;;;;0.70;0.53;;;8.20;99.90;;;;;;5043107;28;20465;-81
2022/02/20 03:50:32;;;;;;;3.13;0.50;;;8.00;99.90;;;;;;5046324;28;20445;-81
2022/02/20 03:53:00;;;;;;;2.37;0.57;;;8.20;99.90;;;;;;5043975;28;20471;-82
2022/02/20 03:55:29;;;;;;;2.30;0.60;;;8.30;99.90;;;;;;5048698;28;20446;-82
2022/02/20 03:57:58;;;;;;;1.37;0.73;;;8.20;99.90;;;;;;5048080;28;20900;-81
2022/02/20 04:00:28;;;;;;;2.10;0.70;;;8.20;99.90;;;;;;5046614;28;20511;-81
2022/02/20 04:02:56;;;;;;;2.33;0.60;;;7.90;99.90;;;;;;5048639;28;20502;-81
2022/02/20 04:05:24;;;;;;;3.70;0.70;;;7.60;99.90;;;;;;5049841;28;21100;-81
2022/02/20 04:07:54;;;;;;;0.70;0.60;;;7.70;99.90;;;;;;5047580;28;20462;-81
2022/02/20 04:10:22;;;;;;;0.60;0.50;;;7.80;99.90;;;;;;5047509;28;20471;-82
2022/02/20 04:12:51;;;;;;;1.27;0.70;;;7.70;99.90;;;;;;5046242;28;21051;-80
2022/02/20 04:15:19;;;;;;;1.30;0.50;;;7.90;99.90;;;;;;5041305;28;20462;-80
2022/02/20 04:17:49;;;;;;;1.73;0.60;;;8.00;99.90;;;;;;5041216;28;20495;-80
2022/02/20 04:20:19;;;;;;;0.40;0.40;;;7.60;99.90;;;;;;5047454;28;20446;-79
2022/02/20 04:22:48;;;;;;;0.80;0.40;;;7.80;99.90;;;;;;5052700;28;20476;-80
2022/02/20 04:25:18;;;;;;;0.40;0.40;;;7.90;99.90;;;;;;5047144;28;20495;-80
2022/02/20 04:27:46;;;;;;;1.23;0.83;;;8.00;99.90;;;;;;5045114;28;20440;-80
2022/02/20 04:30:16;;;;;;;0.90;0.53;;;8.00;99.90;;;;;;5041168;28;20520;-79
2022/02/20 04:32:44;;;;;;;0.40;0.40;;;8.00;99.90;;;;;;5058234;28;20486;-80
2022/02/20 04:35:13;;;;;;;1.13;0.50;;;8.00;99.90;;;;;;5046697;28;20457;-80
2022/02/20 04:37:41;;;;;;;0.67;0.50;;;8.00;99.90;;;;;;5046128;28;20468;-81
2022/02/20 04:40:10;;;;;;;0.40;0.40;;;7.90;99.90;;;;;;5047736;28;20460;-80
2022/02/20 04:42:40;;;;;;;0.50;0.50;;;8.00;99.90;;;;;;5039447;28;20500;-81
2022/02/20 04:45:09;;;;;;;1.13;0.50;;;7.70;99.90;;;;;;5047236;28;21569;-82
2022/02/20 04:47:37;;;;;;;0.50;0.50;;;7.70;99.90;;;;;;5046422;28;20476;-80
2022/02/20 04:50:06;;;;;;;0.57;0.50;;;7.90;99.90;;;;;;5045480;28;20453;-80
2022/02/20 04:52:35;;;;;;;0.50;0.50;;;7.90;99.90;;;;;;5046969;28;20468;-80
2022/02/20 04:55:03;;;;;;;0.73;0.50;;;8.30;99.90;;;;;;5047169;28;20446;-82
2022/02/20 04:57:33;;;;;;;0.40;0.40;;;8.00;99.90;;;;;;5050039;28;20462;-81
2022/02/20 05:00:04;;;;;;;0.50;0.50;;;8.10;99.90;;;;;;5044965;28;20442;-80
2022/02/20 05:02:33;;;;;;;0.43;0.43;;;8.00;99.90;;;;;;5048778;28;20476;-80
2022/02/20 05:05:01;;;;;;;0.47;0.47;;;7.80;99.90;;;;;;5049857;28;20442;-81
2022/02/20 05:07:30;;;;;;;4.97;0.40;;;7.90;99.90;;;;;;5052806;28;20470;-81
2022/02/20 05:09:59;;;;;;;1.80;0.50;;;8.00;99.90;;;;;;5048106;28;20483;-80
2022/02/20 05:12:27;;;;;;;1.23;0.50;;;7.70;1.00;;;;;;5048363;28;20476;-80
2022/02/20 05:14:55;;;;;;;0.50;0.50;;;7.80;1.00;;;;;;5045949;28;20446;-80
2022/02/20 05:17:25;;;;;;;1.47;0.70;;;7.70;1.00;;;;;;5047670;28;20544;-80
2022/02/20 05:19:54;;;;;;;1.10;0.70;;;7.60;1.00;;;;;;5044425;28;20449;-79
2022/02/20 05:22:22;;;;;;;1.17;0.60;;;7.60;1.00;;;;;;5050033;28;20563;-81
2022/02/20 05:24:52;;;;;;;0.80;0.60;;;7.50;1.00;;;;;;5048805;28;20976;-80
2022/02/20 05:27:20;;;;;;;0.80;0.60;;;7.60;1.00;;;;;;5050087;28;20552;-80
2022/02/20 05:29:49;;;;;;;0.80;0.60;;;7.50;1.00;;;;;;5049742;28;20518;-80
2022/02/20 05:32:23;;;;;;;0.60;0.60;;;7.60;1.00;;;;;;5043877;28;20542;-80
2022/02/20 05:34:53;;;;;;;0.50;0.50;;;7.10;1.00;;;;;;5045278;28;20487;-81
2022/02/20 05:37:23;;;;;;;0.50;0.50;;;7.50;1.00;;;;;;5049506;28;20465;-80
2022/02/20 05:39:51;;;;;;;0.87;0.50;;;7.30;53.50;;;;;;5044772;28;20454;-80
2022/02/20 05:42:19;;;;;;;1.20;0.43;;;7.50;1.00;;;;;;5050039;28;20911;-81
2022/02/20 05:44:47;;;;;;;1.30;0.50;;;7.50;1.00;;;;;;5050470;28;20521;-80
2022/02/20 05:47:16;;;;;;;0.73;0.63;;;7.50;1.00;;;;;;5052263;28;20551;-81
2022/02/20 05:49:44;;;;;;;1.50;0.60;;;7.60;1.00;;;;;;5050865;28;20982;-80
2022/02/20 05:52:13;;;;;;;0.63;0.60;;;7.50;1.00;;;;;;5048386;28;20468;-80
2022/02/20 05:54:42;;;;;;;0.77;0.60;;;7.60;1.00;;;;;;5047458;28;20464;-80
2022/02/20 05:57:10;;;;;;;1.03;0.80;;;7.70;1.00;;;;;;5046979;28;20450;-80
2022/02/20 05:59:38;;;;;;;2.03;0.60;;;7.50;1.00;;;;;;5041318;28;20456;-80
2022/02/20 06:02:07;;;;;;;0.50;0.50;;;7.50;1.00;;;;;;5045014;28;20515;-81
2022/02/20 06:04:35;;;;;;;3.70;0.80;;;7.70;1.00;;;;;;5046002;28;20569;-80
2022/02/20 06:07:03;;;;;;;1.63;0.70;;;7.80;1.00;;;;;;5046538;28;20490;-81
2022/02/20 06:09:33;;;;;;;0.83;0.40;;;7.80;1.00;;;;;;5048141;28;21068;-80
2022/02/20 06:12:02;;;;;;;0.50;0.50;;;8.00;99.90;;;;;;5043186;28;20470;-80
2022/02/20 06:14:30;;;;;;;0.50;0.50;;;7.60;1.00;;;;;;5046601;28;20448;-80
2022/02/20 06:16:58;;;;;;;0.50;0.50;;;7.50;1.00;;;;;;5041696;28;20453;-81
2022/02/20 06:19:27;;;;;;;0.50;0.50;;;7.70;1.00;;;;;;5040668;28;20494;-80
2022/02/20 06:21:55;;;;;;;0.50;0.50;;;7.60;1.00;;;;;;5044026;28;21082;-80
2022/02/20 06:24:23;;;;;;;1.07;0.50;;;7.40;1.00;;;;;;5053478;28;20483;-79
2022/02/20 06:26:52;;;;;;;3.20;0.50;;;7.30;1.00;;;;;;5037104;28;20457;-81
2022/02/20 06:29:21;;;;;;;0.70;0.57;;;7.30;1.00;;;;;;5048543;28;20457;-80
2022/02/20 06:31:49;;;;;;;0.63;0.50;;;7.30;1.00;;;;;;5047898;28;20471;-80
2022/02/20 06:34:17;;;;;;;0.50;0.50;;;7.30;1.00;;;;;;5044505;28;20490;-80
2022/02/20 06:36:45;;;;;;;0.60;0.47;;;7.60;1.00;;;;;;5048304;28;20817;-80
2022/02/20 06:39:13;;;;;;;1.07;0.43;;;7.50;1.00;;;;;;5045047;28;20538;-80
2022/02/20 06:41:42;;;;;;;1.40;0.50;;;7.20;1.00;;;;;;5050390;28;20475;-80
2022/02/20 06:44:11;;;;;;;0.40;0.40;;;7.20;1.00;;;;;;5048165;28;20504;-79
2022/02/20 06:46:41;;;;;;;1.87;0.50;;;7.40;1.00;;;;;;5048630;28;20458;-80
2022/02/20 06:49:10;;;;;;;0.50;0.50;;;7.30;1.00;;;;;;5044668;28;20964;-80
2022/02/20 06:51:38;;;;;;;0.60;0.60;;;7.30;1.00;;;;;;5045601;28;20475;-81
2022/02/20 06:54:06;;;;;;;0.47;0.47;;;7.30;1.00;;;;;;5045726;28;20489;-80
2022/02/20 06:56:35;;;;;;;1.37;0.50;;;7.60;1.00;;;;;;5048846;28;20482;-80
2022/02/20 06:59:03;;;;;;;2.50;0.50;;;7.90;99.90;;;;;;5041025;28;20452;-79
2022/02/20 07:01:32;;;;;;;0.57;0.50;;;7.60;99.90;;;;;;5044586;28;20492;-81
2022/02/20 07:04:01;;;;;;;0.97;0.70;;;7.80;99.90;;;;;;5049376;28;20477;-81
2022/02/20 07:06:29;;;;;;;0.70;0.50;;;7.60;99.90;;;;;;5046215;28;20478;-80
2022/02/20 07:08:57;;;;;;;0.70;0.50;;;7.50;1.00;;;;;;5048464;28;20545;-79
2022/02/20 07:11:27;;;;;;;0.50;0.50;;;7.60;99.90;;;;;;5047741;28;20479;-80
2022/02/20 07:13:55;;;;;;;0.70;0.53;;;7.40;1.00;;;;;;5050575;28;20441;-80
2022/02/20 07:16:23;;;;;;;0.50;0.50;;;7.60;1.00;;;;;;5042973;28;20476;-82
2022/02/20 07:18:54;;;;;;;0.60;0.50;;;7.80;99.90;;;;;;5036455;28;20457;-78
2022/02/20 07:21:22;;;;;;;0.73;0.50;;;8.00;1.00;;;;;;5042275;28;20456;-79
2022/02/20 07:23:50;;;;;;;0.50;0.50;;;8.00;99.90;;;;;;5043485;28;20230;-78
2022/02/20 07:26:18;;;;;;;0.60;0.57;;;7.90;99.90;;;;;;5041720;28;20459;-79
2022/02/20 07:28:47;;;;;;;0.40;0.40;;;7.80;99.90;;;;;;5041313;28;20453;-78
2022/02/20 07:31:15;;;;;;;0.60;0.50;;;7.80;99.90;;;;;;5046759;28;20485;-80
2022/02/20 07:33:43;;;;;;;1.10;0.70;;;7.80;99.90;;;;;;5041550;28;20455;-80
2022/02/20 07:36:13;;;;;;;0.67;0.67;;;7.80;99.90;;;;;;5047721;28;20493;-78
2022/02/20 07:38:41;;;;;;;0.87;0.60;;;7.70;99.90;;;;;;5042742;28;20460;-77
2022/02/20 07:41:09;;;;;;;1.43;0.50;;;7.70;99.90;;;;;;5053112;28;20469;-78
2022/02/20 07:43:37;;;;;;;1.00;0.50;;;7.80;99.90;;;;;;5043032;28;20469;-79
2022/02/20 07:46:05;;;;;;;0.50;0.50;;;7.90;99.90;;;;;;5038199;28;20468;-78
2022/02/20 07:48:34;;;;;;;0.90;0.50;;;7.80;99.90;;;;;;5042231;28;20504;-78
2022/02/20 07:51:02;;;;;;;0.50;0.43;;;7.80;99.90;;;;;;5037571;28;20570;-79
2022/02/20 07:53:32;;;;;;;0.73;0.53;;;7.80;99.90;;;;;;5058743;28;20522;-80
2022/02/20 07:56:00;;;;;;;0.50;0.50;;;7.90;99.90;;;;;;5039102;28;20447;-79
2022/02/20 07:58:28;;;;;;;0.40;0.40;;;8.00;99.90;;;;;;5044897;28;20463;-78
2022/02/20 08:00:57;;;;;;;0.60;0.60;;;7.90;99.90;;;;;;5045925;28;20472;-78
2022/02/20 08:03:25;;;;;;;0.57;0.50;;;8.10;99.90;;;;;;5043551;28;21295;-78
2022/02/20 08:05:53;;;;;;;1.47;0.50;;;8.20;99.90;;;;;;5043797;28;21245;-79
2022/02/20 08:08:21;;;;;;;3.30;0.90;;;8.20;99.90;;;;;;5038838;28;20996;-79
2022/02/20 08:10:51;;;;;;;1.47;0.50;;;8.30;99.90;;;;;;5040981;28;20524;-79
2022/02/20 08:13:19;;;;;;;0.73;0.40;;;8.20;99.90;;;;;;5040595;28;20491;-79
2022/02/20 08:15:47;;;;;;;0.87;0.70;;;8.50;99.90;;;;;;5044717;28;20458;-79
2022/02/20 08:18:16;;;;;;;1.13;0.53;;;8.30;99.90;;;;;;5040504;28;21175;-79
2022/02/20 08:20:45;;;;;;;0.67;0.50;;;8.60;99.90;;;;;;5042501;28;21033;-79
2022/02/20 08:23:33;;;;;;;0.50;0.50;;;8.70;99.90;;;;;;5041434;28;20440;-80
2022/02/20 08:26:03;;;;;;;1.30;0.53;;;9.00;99.90;;;;;;5041742;28;20526;-79
2022/02/20 08:28:31;;;;;;;1.10;0.50;;;9.00;99.90;;;;;;5037644;28;20452;-79
2022/02/20 08:30:59;;;;;;;2.20;0.57;;;8.90;99.90;;;;;;5049297;28;20527;-78
2022/02/20 08:33:28;;;;;;;1.83;0.60;;;8.80;99.90;;;;;;5040367;28;20475;-80
2022/02/20 08:36:14;;;;;;;3.20;0.70;;;8.70;99.90;;;;;;5040392;28;20491;-79
2022/02/20 08:38:42;;;;;;;1.90;0.70;;;8.80;99.90;;;;;;5038085;28;20459;-80
2022/02/20 08:41:12;;;;;;;1.13;0.50;;;8.80;99.90;;;;;;5037134;28;20455;-79
2022/02/20 08:43:40;;;;;;;0.90;0.60;;;8.70;99.90;;;;;;5042376;28;20449;-77
2022/02/20 08:46:09;;;;;;;1.37;0.47;;;8.80;99.90;;;;;;5063862;28;20489;-79
2022/02/20 08:48:37;;;;;;;0.63;0.50;;;8.90;99.90;;;;;;5055264;28;21341;-80
2022/02/20 08:51:07;;;;;;;1.30;0.50;;;9.00;99.90;;;;;;5044552;28;20448;-80
2022/02/20 08:53:37;;;;;;;0.73;0.70;;;9.20;99.90;;;;;;5044294;28;20462;-81
2022/02/20 08:56:08;;;;;;;1.17;0.50;;;9.40;99.90;;;;;;5047311;28;20543;-80
2022/02/20 08:58:37;;;;;;;2.20;0.80;;;9.30;99.90;;;;;;5043350;28;21991;-83
2022/02/20 09:01:06;;;;;;;1.07;0.60;;;9.60;99.90;;;;;;5048512;28;20809;-80
2022/02/20 09:03:34;;;;;;;3.33;0.60;;;9.70;99.90;;;;;;5049832;28;20521;-81
2022/02/20 09:06:03;;;;;;;0.60;0.60;;;9.50;99.90;;;;;;5042494;28;20503;-81
2022/02/20 09:08:31;;;;;;;0.50;0.50;;;9.50;99.90;;;;;;5036029;28;20462;-80
2022/02/20 09:11:00;;;;;;;0.40;0.40;;;9.60;99.90;;;;;;5042675;28;22298;-80
2022/02/20 09:13:28;;;;;;;0.57;0.50;;;9.20;99.90;;;;;;5045671;28;20443;-79
2022/02/20 09:15:58;;;;;;;0.50;0.40;;;8.90;99.90;;;;;;5042852;28;20484;-80
2022/02/20 09:18:26;;;;;;;1.13;0.50;;;9.00;99.90;;;;;;5042130;28;20488;-80
2022/02/20 09:20:54;;;;;;;0.50;0.50;;;9.10;99.90;;;;;;5045641;28;20471;-80
2022/02/20 09:23:23;;;;;;;0.50;0.50;;;9.00;99.90;;;;;;5047340;28;21151;-80
2022/02/20 09:25:51;;;;;;;1.50;0.60;;;9.20;99.90;;;;;;5042860;28;21006;-80
2022/02/20 09:28:20;;;;;;;0.40;0.40;;;9.30;99.90;;;;;;5041622;28;20444;-79
2022/02/20 09:30:48;;;;;;;1.43;0.50;;;9.10;99.90;;;;;;5044718;28;21176;-79
2022/02/20 09:33:18;;;;;;;1.03;0.80;;;9.20;99.90;;;;;;5045881;28;20499;-74
2022/02/20 09:35:46;;;;;;;1.00;0.50;;;9.40;99.90;;;;;;5041005;28;20444;-70
2022/02/20 09:38:16;;;;;;;0.57;0.50;;;9.00;99.90;;;;;;5034695;28;20454;-79
2022/02/20 09:40:44;;;;;;;0.40;0.40;;;9.00;99.90;;;;;;5041225;28;20485;-77
2022/02/20 09:43:13;;;;;;;0.40;0.40;;;9.10;99.90;;;;;;5042675;28;21164;-78
2022/02/20 09:45:46;;;;;;;0.40;0.40;;;9.10;99.90;;;;;;5047041;28;20997;-78
2022/02/20 09:48:15;;;;;;;0.50;0.50;;;9.00;99.90;;;;;;5042298;28;20542;-77
2022/02/20 09:50:46;;;;;;;0.70;0.50;;;9.00;99.90;;;;;;5042083;28;21020;-78
2022/02/20 09:53:14;;;;;;;1.80;0.40;;;9.10;99.90;;;;;;5041965;28;20489;-78
2022/02/20 09:55:46;;;;;;;0.50;0.50;;;9.10;99.90;;;;;;5042255;28;20438;-78
2022/02/20 09:58:15;;;;;;;0.60;0.60;;;9.00;99.90;;;;;;5039356;28;20445;-78
2022/02/20 10:00:54;;;;;;;0.50;0.50;;;9.20;99.90;;;;;;5044579;28;20495;-78
2022/02/20 10:03:31;;;;;;;0.43;0.43;;;9.10;99.90;;;;;;5046274;28;20496;-79
2022/02/20 10:06:01;;;;;;;0.50;0.50;;;9.00;99.90;;;;;;5048113;28;20463;-78
2022/02/20 10:08:38;;;;;;;0.60;0.60;;;9.00;99.90;;;;;;5041023;28;20806;-78
2022/02/20 10:11:14;;;;;;;0.50;0.50;;;9.00;99.90;;;;;;5037608;28;20483;-78
2022/02/20 10:13:42;;;;;;;0.40;0.40;;;9.00;99.90;;;;;;5044652;28;20905;-77
2022/02/20 10:16:23;;;;;;;0.40;0.40;;;9.10;99.90;;;;;;5039615;28;20467;-78
2022/02/20 10:18:52;;;;;;;1.73;0.40;;;9.20;99.90;;;;;;5037288;28;20466;-79
2022/02/20 10:21:24;;;;;;;0.50;0.50;;;9.40;99.90;;;;;;5044720;28;20709;-79
2022/02/20 10:23:54;;;;;;;1.33;0.40;;;9.50;99.90;;;;;;5039247;28;20452;-78
2022/02/20 10:26:24;;;;;;;0.73;0.50;;;9.60;99.90;;;;;;5044827;28;20996;-78
2022/02/20 10:29:07;;;;;;;1.17;0.50;;;9.70;99.90;;;;;;5041509;28;20452;-77
2022/02/20 10:31:41;;;;;;;0.50;0.50;;;9.50;99.90;;;;;;5040582;28;21029;-77
2022/02/20 10:34:12;;;;;;;0.53;0.50;;;9.30;99.90;;;;;;5043250;28;20463;-78
2022/02/20 10:36:52;;;;;;;0.50;0.50;;;9.40;99.90;;;;;;5042504;28;20452;-78
2022/02/20 10:39:22;;;;;;;1.30;0.50;;;9.40;99.90;;;;;;5035209;28;20443;-78
2022/02/20 10:41:52;;;;;;;1.40;0.60;;;9.30;99.90;;;;;;5043930;28;21554;-80
2022/02/20 10:44:20;;;;;;;0.60;0.50;;;9.20;99.90;;;;;;5037656;28;20461;-78
2022/02/20 10:46:48;;;;;;;0.60;0.40;;;9.20;99.90;;;;;;5044559;28;20479;-78
2022/02/20 10:49:24;;;;;;;0.97;0.40;;;9.00;99.90;;;;;;5030942;28;20446;-79
2022/02/20 10:51:54;;;;;;;0.40;0.40;;;9.20;99.90;;;;;;5038822;28;20990;-78
2022/02/20 10:54:23;;;;;;;0.80;0.60;;;9.40;99.90;;;;;;5044341;28;20462;-78
2022/02/20 10:56:51;;;;;;;0.40;0.40;;;9.30;99.90;;;;;;5043449;28;20462;-78
2022/02/20 10:59:21;;;;;;;0.50;0.40;;;9.30;99.90;;;;;;5040522;28;20954;-78
2022/02/20 11:01:50;;;;;;;0.40;0.40;;;9.30;99.90;;;;;;5044857;28;20463;-79
2022/02/20 11:04:18;;;;;;;0.50;0.50;;;9.30;99.90;;;;;;5045293;28;20446;-78
2022/02/20 11:06:48;;;;;;;0.50;0.43;;;9.40;99.90;;;;;;5038905;28;20479;-78
2022/02/20 11:09:18;;;;;;;1.77;0.50;;;9.40;99.90;;;;;;5039464;28;20791;-79
2022/02/20 11:11:49;;;;;;;1.77;0.40;;;9.50;99.90;;;;;;5044423;28;20469;-77
2022/02/20 11:14:20;;;;;;;0.50;0.50;;;9.60;99.90;;;;;;5040372;28;20463;-79
2022/02/20 11:16:51;;;;;;;0.53;0.50;;;9.60;99.90;;;;;;5043230;28;20455;-77
2022/02/20 11:19:22;;;;;;;1.23;0.50;;;9.50;99.90;;;;;;5040575;28;20468;-76
2022/02/20 11:21:55;;;;;;;1.73;0.80;;;10.00;99.90;;;;;;5041724;28;20479;-77
2022/02/20 11:24:27;;;;;;;1.33;0.60;;;9.90;99.90;;;;;;5044181;28;20474;-77
2022/02/20 11:26:56;;;;;;;0.50;0.50;;;10.10;99.90;;;;;;5041466;28;20506;-77
2022/02/20 11:29:25;;;;;;;0.53;0.40;;;10.10;99.90;;;;;;5036122;28;20451;-77
2022/02/20 11:31:53;;;;;;;0.50;0.50;;;10.10;99.90;;;;;;5042826;28;20494;-78
2022/02/20 11:34:22;;;;;;;0.50;0.50;;;9.80;99.90;;;;;;5041090;28;20924;-77
2022/02/20 11:36:52;;;;;;;0.90;0.40;;;9.90;99.90;;;;;;5040503;28;20445;-77
2022/02/20 11:39:22;;;;;;;0.70;0.43;;;10.00;99.90;;;;;;5045739;28;20479;-77
2022/02/20 11:42:12;;;;;;;0.50;0.50;;;10.00;99.90;;;;;;5044159;28;20486;-76
2022/02/20 11:44:52;;;;;;;0.50;0.50;;;9.80;99.90;;;;;;5039469;28;20957;-77
2022/02/20 11:47:43;;;;;;;0.60;0.40;;;9.80;99.90;;;;;;5038454;28;20519;-77
2022/02/20 11:50:37;;;;;;;0.50;0.50;;;9.80;99.90;;;;;;5041731;28;20481;-78
2022/02/20 11:53:07;;;;;;;1.13;0.80;;;9.60;99.90;;;;;;5038073;28;21048;-79
2022/02/20 11:55:38;;;;;;;0.60;0.60;;;9.90;99.90;;;;;;5040831;28;20950;-77
2022/02/20 11:58:24;;;;;;;0.60;0.50;;;10.40;99.90;;;;;;5044624;28;20211;-77
2022/02/20 12:01:18;;;;;;;0.50;0.50;;;10.00;99.90;;;;;;5038844;28;20450;-78
2022/02/20 12:04:07;;;;;;;0.80;0.77;;;9.90;99.90;;;;;;5042837;28;20460;-78
2022/02/20 12:06:41;;;;;;;0.50;0.50;;;10.10;99.90;;;;;;5039907;28;20478;-77
2022/02/20 12:09:28;;;;;;;0.77;0.57;;;9.90;99.90;;;;;;5036663;28;20473;-77
2022/02/20 12:11:57;;;;;;;0.60;0.50;;;10.00;99.90;;;;;;5034526;28;20466;-77
2022/02/20 12:14:30;;;;;;;0.60;0.60;;;10.20;99.90;;;;;;5041836;28;20455;-76
2022/02/20 12:17:02;;;;;;;0.70;0.40;;;10.20;99.90;;;;;;5041175;28;20499;-76
2022/02/20 12:19:37;;;;;;;1.20;0.50;;;10.40;99.90;;;;;;5035039;28;20450;-77
2022/02/20 12:22:11;;;;;;;0.60;0.50;;;10.40;99.90;;;;;;5043329;28;20498;-76
2022/02/20 12:24:44;;;;;;;0.80;0.57;;;10.40;99.90;;;;;;5036442;28;20507;-78
2022/02/20 12:27:16;;;;;;;0.43;0.40;;;10.30;99.90;;;;;;5035460;28;20474;-77
2022/02/20 12:29:50;;;;;;;0.93;0.47;;;10.20;99.90;;;;;;5036991;28;20997;-76
2022/02/20 12:32:31;;;;;;;0.50;0.50;;;10.20;99.90;;;;;;5034108;28;20480;-76
2022/02/20 12:35:15;;;;;;;0.40;0.40;;;10.00;99.90;;;;;;5045528;28;20456;-77
2022/02/20 12:37:46;;;;;;;0.60;0.60;;;9.80;99.90;;;;;;5038491;28;20446;-77
2022/02/20 12:40:16;;;;;;;2.70;0.50;;;9.60;99.90;;;;;;5036621;28;20544;-77
2022/02/20 12:42:48;;;;;;;0.40;0.40;;;9.90;99.90;;;;;;5048603;28;20509;-77
2022/02/20 12:45:21;;;;;;;1.13;0.70;;;10.10;99.90;;;;;;5042729;28;20508;-77
2022/02/20 12:47:53;;;;;;;0.70;0.60;;;10.10;99.90;;;;;;5039194;28;20639;-78
2022/02/20 12:50:23;;;;;;;0.63;0.60;;;9.90;99.90;;;;;;5041599;28;20555;-77
2022/02/20 12:52:52;;;;;;;0.40;0.40;;;9.90;99.90;;;;;;5042089;28;20517;-77
2022/02/20 12:55:21;;;;;;;0.50;0.50;;;10.20;99.90;;;;;;5043746;28;20489;-78
2022/02/20 12:57:51;;;;;;;1.10;0.57;;;10.30;99.90;;;;;;5041659;28;20484;-77
2022/02/20 13:00:21;;;;;;;0.83;0.50;;;10.30;99.90;;;;;;5041453;28;20494;-77
2022/02/20 13:02:51;;;;;;;1.60;1.00;;;10.20;99.90;;;;;;5046682;28;20471;-78
2022/02/20 13:05:27;;;;;;;0.50;0.50;;;10.10;99.90;;;;;;5046903;28;20541;-77
2022/02/20 13:07:58;;;;;;;0.50;0.50;;;10.20;99.90;;;;;;5044278;28;20478;-77
2022/02/20 13:10:30;;;;;;;0.50;0.40;;;10.30;99.90;;;;;;5035673;28;20549;-77